sensor_id;sensor_type;location;lat;lon;timestamp;pressure;altitude;pressure_sealevel;temperature;humidity
12146;BME280;6136;47.032;15.398;2023-03-23T00:02:23;97214.41;;;6.84;100.00
12146;BME280;6136;47.032;15.398;2023-03-23T00:04:50;97211.94;;;6.81;100.00
12146;BME280;6136;47.032;15.398;2023-03-23T00:07:19;97207.63;;;6.80;100.00
12146;BME280;6136;47.032;15.398;2023-03-23T00:09:48;97220.16;;;6.75;100.00
12146;BME280;6136;47.032;15.398;2023-03-23T00:12:20;97209.03;;;6.70;100.00
12146;BME280;6136;47.032;15.398;2023-03-23T00:14:58;97221.00;;;6.75;100.00
12146;BME280;6136;47.032;15.398;2023-03-23T00:17:26;97219.56;;;6.70;100.00
12146;BME280;6136;47.032;15.398;2023-03-23T00:19:53;97213.50;;;6.68;100.00
12146;BME280;6136;47.032;15.398;2023-03-23T00:22:20;97212.31;;;6.57;100.00
12146;BME280;6136;47.032;15.398;2023-03-23T00:24:51;97210.84;;;6.52;100.00
12146;BME280;6136;47.032;15.398;2023-03-23T00:27:20;97200.38;;;6.50;100.00
12146;BME280;6136;47.032;15.398;2023-03-23T00:29:48;97204.03;;;6.48;100.00
12146;BME280;6136;47.032;15.398;2023-03-23T00:32:19;97198.75;;;6.48;100.00
12146;BME280;6136;47.032;15.398;2023-03-23T00:34:46;97196.19;;;6.46;100.00
12146;BME280;6136;47.032;15.398;2023-03-23T00:37:15;97202.56;;;6.42;100.00
12146;BME280;6136;47.032;15.398;2023-03-23T00:39:43;97202.72;;;6.39;100.00
12146;BME280;6136;47.032;15.398;2023-03-23T00:42:13;97208.81;;;6.40;100.00
12146;BME280;6136;47.032;15.398;2023-03-23T00:44:42;97206.13;;;6.41;100.00
12146;BME280;6136;47.032;15.398;2023-03-23T00:47:10;97201.00;;;6.38;100.00
12146;BME280;6136;47.032;15.398;2023-03-23T00:49:38;97198.38;;;6.38;100.00
12146;BME280;6136;47.032;15.398;2023-03-23T00:52:07;97200.06;;;6.39;100.00
12146;BME280;6136;47.032;15.398;2023-03-23T00:54:34;97189.09;;;6.31;100.00
12146;BME280;6136;47.032;15.398;2023-03-23T00:57:03;97198.41;;;6.21;100.00
12146;BME280;6136;47.032;15.398;2023-03-23T00:59:31;97193.22;;;6.19;100.00
12146;BME280;6136;47.032;15.398;2023-03-23T01:02:00;97187.88;;;6.21;100.00
12146;BME280;6136;47.032;15.398;2023-03-23T01:04:27;97183.63;;;6.18;100.00
12146;BME280;6136;47.032;15.398;2023-03-23T01:06:57;97184.59;;;6.16;100.00
12146;BME280;6136;47.032;15.398;2023-03-23T01:09:26;97171.69;;;6.11;100.00
12146;BME280;6136;47.032;15.398;2023-03-23T01:11:53;97175.03;;;6.15;100.00
12146;BME280;6136;47.032;15.398;2023-03-23T01:14:22;97174.47;;;6.08;100.00
12146;BME280;6136;47.032;15.398;2023-03-23T01:16:51;97176.25;;;6.08;100.00
12146;BME280;6136;47.032;15.398;2023-03-23T01:19:19;97171.16;;;6.05;100.00
12146;BME280;6136;47.032;15.398;2023-03-23T01:21:46;97170.25;;;6.06;100.00
12146;BME280;6136;47.032;15.398;2023-03-23T01:24:13;97177.34;;;6.04;100.00
12146;BME280;6136;47.032;15.398;2023-03-23T01:26:40;97174.84;;;6.01;100.00
12146;BME280;6136;47.032;15.398;2023-03-23T01:29:07;97178.50;;;5.98;100.00
12146;BME280;6136;47.032;15.398;2023-03-23T01:31:35;97174.09;;;5.99;100.00
12146;BME280;6136;47.032;15.398;2023-03-23T01:34:04;97170.84;;;5.94;100.00
12146;BME280;6136;47.032;15.398;2023-03-23T01:36:33;97172.63;;;5.93;100.00
12146;BME280;6136;47.032;15.398;2023-03-23T01:39:04;97165.06;;;5.85;100.00
12146;BME280;6136;47.032;15.398;2023-03-23T01:41:32;97164.53;;;5.79;100.00
12146;BME280;6136;47.032;15.398;2023-03-23T01:44:06;97160.91;;;5.81;100.00
12146;BME280;6136;47.032;15.398;2023-03-23T01:46:40;97150.31;;;5.83;100.00
12146;BME280;6136;47.032;15.398;2023-03-23T01:49:09;97153.16;;;5.78;100.00
12146;BME280;6136;47.032;15.398;2023-03-23T01:51:41;97153.16;;;5.78;100.00
12146;BME280;6136;47.032;15.398;2023-03-23T01:54:12;97154.13;;;5.77;100.00
12146;BME280;6136;47.032;15.398;2023-03-23T01:56:47;97140.97;;;5.77;100.00
12146;BME280;6136;47.032;15.398;2023-03-23T01:59:15;97140.25;;;5.74;100.00
12146;BME280;6136;47.032;15.398;2023-03-23T02:01:47;97144.47;;;5.78;100.00
12146;BME280;6136;47.032;15.398;2023-03-23T02:04:19;97146.69;;;5.68;100.00
12146;BME280;6136;47.032;15.398;2023-03-23T02:06:48;97151.38;;;5.62;100.00
12146;BME280;6136;47.032;15.398;2023-03-23T02:09:20;97153.16;;;5.61;100.00
12146;BME280;6136;47.032;15.398;2023-03-23T02:11:48;97150.53;;;5.61;100.00
12146;BME280;6136;47.032;15.398;2023-03-23T02:14:17;97144.25;;;5.64;100.00
12146;BME280;6136;47.032;15.398;2023-03-23T02:16:47;97147.00;;;5.62;100.00
12146;BME280;6136;47.032;15.398;2023-03-23T02:22:47;97141.88;;;5.59;100.00
12146;BME280;6136;47.032;15.398;2023-03-23T02:25:54;97145.59;;;5.55;100.00
12146;BME280;6136;47.032;15.398;2023-03-23T02:28:41;97142.47;;;5.47;100.00
12146;BME280;6136;47.032;15.398;2023-03-23T02:31:23;97150.97;;;5.52;100.00
12146;BME280;6136;47.032;15.398;2023-03-23T02:33:59;97150.38;;;5.47;100.00
12146;BME280;6136;47.032;15.398;2023-03-23T02:36:30;97139.50;;;5.36;100.00
12146;BME280;6136;47.032;15.398;2023-03-23T02:39:05;97147.19;;;5.40;100.00
12146;BME280;6136;47.032;15.398;2023-03-23T02:41:37;97160.31;;;5.40;100.00
12146;BME280;6136;47.032;15.398;2023-03-23T02:44:07;97157.91;;;5.36;100.00
12146;BME280;6136;47.032;15.398;2023-03-23T02:46:36;97143.91;;;5.35;100.00
12146;BME280;6136;47.032;15.398;2023-03-23T02:49:06;97157.34;;;5.29;100.00
12146;BME280;6136;47.032;15.398;2023-03-23T02:51:35;97150.44;;;5.27;100.00
12146;BME280;6136;47.032;15.398;2023-03-23T02:54:04;97150.44;;;5.27;100.00
12146;BME280;6136;47.032;15.398;2023-03-23T02:56:32;97149.81;;;5.22;100.00
12146;BME280;6136;47.032;15.398;2023-03-23T02:59:02;97146.66;;;5.15;100.00
12146;BME280;6136;47.032;15.398;2023-03-23T03:01:56;97151.03;;;5.15;100.00
12146;BME280;6136;47.032;15.398;2023-03-23T03:04:28;97149.13;;;5.18;100.00
12146;BME280;6136;47.032;15.398;2023-03-23T03:07:07;97151.19;;;5.12;100.00
12146;BME280;6136;47.032;15.398;2023-03-23T03:09:43;97150.41;;;5.10;100.00
12146;BME280;6136;47.032;15.398;2023-03-23T03:12:21;97155.59;;;5.11;100.00
12146;BME280;6136;47.032;15.398;2023-03-23T03:14:56;97154.75;;;5.11;100.00
12146;BME280;6136;47.032;15.398;2023-03-23T03:17:26;97156.38;;;5.13;100.00
12146;BME280;6136;47.032;15.398;2023-03-23T03:20:00;97148.72;;;5.08;100.00
12146;BME280;6136;47.032;15.398;2023-03-23T03:22:33;97140.66;;;5.12;100.00
12146;BME280;6136;47.032;15.398;2023-03-23T03:25:04;97151.34;;;5.08;100.00
12146;BME280;6136;47.032;15.398;2023-03-23T03:27:33;97147.06;;;5.06;100.00
12146;BME280;6136;47.032;15.398;2023-03-23T03:30:09;97148.09;;;5.03;100.00
12146;BME280;6136;47.032;15.398;2023-03-23T03:32:44;97153.59;;;4.97;100.00
12146;BME280;6136;47.032;15.398;2023-03-23T03:35:16;97148.81;;;4.88;100.00
12146;BME280;6136;47.032;15.398;2023-03-23T03:37:44;97146.38;;;4.84;100.00
12146;BME280;6136;47.032;15.398;2023-03-23T03:40:14;97152.34;;;4.87;100.00
12146;BME280;6136;47.032;15.398;2023-03-23T03:42:43;97155.81;;;4.88;100.00
12146;BME280;6136;47.032;15.398;2023-03-23T03:45:14;97157.59;;;4.87;100.00
12146;BME280;6136;47.032;15.398;2023-03-23T03:47:41;97164.69;;;4.85;100.00
12146;BME280;6136;47.032;15.398;2023-03-23T03:50:09;97156.00;;;4.83;100.00
12146;BME280;6136;47.032;15.398;2023-03-23T03:52:38;97158.50;;;4.86;100.00
12146;BME280;6136;47.032;15.398;2023-03-23T03:55:07;97164.75;;;4.84;100.00
12146;BME280;6136;47.032;15.398;2023-03-23T03:57:36;97177.69;;;4.88;100.00
12146;BME280;6136;47.032;15.398;2023-03-23T04:00:04;97167.31;;;4.85;100.00
12146;BME280;6136;47.032;15.398;2023-03-23T04:02:42;97171.75;;;4.83;100.00
12146;BME280;6136;47.032;15.398;2023-03-23T04:05:10;97175.31;;;4.82;100.00
12146;BME280;6136;47.032;15.398;2023-03-23T04:07:39;97163.03;;;4.83;100.00
12146;BME280;6136;47.032;15.398;2023-03-23T04:10:09;97164.03;;;4.80;100.00
12146;BME280;6136;47.032;15.398;2023-03-23T04:12:37;97175.59;;;4.76;100.00
12146;BME280;6136;47.032;15.398;2023-03-23T04:15:23;97169.59;;;4.74;100.00
12146;BME280;6136;47.032;15.398;2023-03-23T04:17:50;97174.03;;;4.72;100.00
12146;BME280;6136;47.032;15.398;2023-03-23T04:20:17;97172.47;;;4.68;100.00
12146;BME280;6136;47.032;15.398;2023-03-23T04:22:51;97187.28;;;4.69;100.00
12146;BME280;6136;47.032;15.398;2023-03-23T04:25:23;97173.47;;;4.65;100.00
12146;BME280;6136;47.032;15.398;2023-03-23T04:27:52;97173.72;;;4.59;100.00
12146;BME280;6136;47.032;15.398;2023-03-23T04:30:25;97175.91;;;4.50;100.00
12146;BME280;6136;47.032;15.398;2023-03-23T04:33:07;97178.38;;;4.53;100.00
12146;BME280;6136;47.032;15.398;2023-03-23T04:35:41;97176.63;;;4.53;100.00
12146;BME280;6136;47.032;15.398;2023-03-23T04:38:14;97179.19;;;4.55;100.00
12146;BME280;6136;47.032;15.398;2023-03-23T04:40:47;97178.38;;;4.53;100.00
12146;BME280;6136;47.032;15.398;2023-03-23T04:43:39;97175.63;;;4.56;100.00
12146;BME280;6136;47.032;15.398;2023-03-23T04:46:30;97182.59;;;4.57;100.00
12146;BME280;6136;47.032;15.398;2023-03-23T04:49:02;97177.41;;;4.55;100.00
12146;BME280;6136;47.032;15.398;2023-03-23T04:51:33;97183.81;;;4.68;100.00
12146;BME280;6136;47.032;15.398;2023-03-23T04:54:15;97187.63;;;4.61;100.00
12146;BME280;6136;47.032;15.398;2023-03-23T04:56:48;97190.41;;;4.58;100.00
12146;BME280;6136;47.032;15.398;2023-03-23T04:59:15;97185.91;;;4.60;100.00
12146;BME280;6136;47.032;15.398;2023-03-23T05:01:56;97179.56;;;4.66;100.00
12146;BME280;6136;47.032;15.398;2023-03-23T05:04:24;97181.25;;;4.67;100.00
12146;BME280;6136;47.032;15.398;2023-03-23T05:07:01;97186.50;;;4.67;100.00
12146;BME280;6136;47.032;15.398;2023-03-23T05:09:33;97181.13;;;4.70;100.00
12146;BME280;6136;47.032;15.398;2023-03-23T05:12:03;97180.22;;;4.71;100.00
12146;BME280;6136;47.032;15.398;2023-03-23T05:14:32;97186.25;;;4.73;100.00
12146;BME280;6136;47.032;15.398;2023-03-23T05:17:08;97188.31;;;4.85;100.00
12146;BME280;6136;47.032;15.398;2023-03-23T05:19:35;97189.84;;;4.89;100.00
12146;BME280;6136;47.032;15.398;2023-03-23T05:22:13;97194.91;;;4.94;100.00
12146;BME280;6136;47.032;15.398;2023-03-23T05:24:48;97193.47;;;5.05;100.00
12146;BME280;6136;47.032;15.398;2023-03-23T05:27:18;97193.47;;;5.05;100.00
12146;BME280;6136;47.032;15.398;2023-03-23T05:29:47;97199.66;;;5.04;100.00
12146;BME280;6136;47.032;15.398;2023-03-23T05:32:15;97196.59;;;5.14;100.00
12146;BME280;6136;47.032;15.398;2023-03-23T05:34:43;97197.34;;;5.17;100.00
12146;BME280;6136;47.032;15.398;2023-03-23T05:37:10;97199.44;;;5.28;100.00
12146;BME280;6136;47.032;15.398;2023-03-23T05:40:06;97207.25;;;5.29;100.00
12146;BME280;6136;47.032;15.398;2023-03-23T05:42:41;97205.53;;;5.28;100.00
12146;BME280;6136;47.032;15.398;2023-03-23T05:45:23;97212.72;;;5.43;100.00
12146;BME280;6136;47.032;15.398;2023-03-23T05:47:51;97219.06;;;5.57;100.00
12146;BME280;6136;47.032;15.398;2023-03-23T05:50:20;97214.09;;;5.69;100.00
12146;BME280;6136;47.032;15.398;2023-03-23T05:52:47;97212.31;;;5.89;100.00
12146;BME280;6136;47.032;15.398;2023-03-23T05:55:17;97221.94;;;6.07;100.00
12146;BME280;6136;47.032;15.398;2023-03-23T05:57:53;97207.75;;;6.27;100.00
12146;BME280;6136;47.032;15.398;2023-03-23T06:00:27;97221.13;;;6.39;100.00
12146;BME280;6136;47.032;15.398;2023-03-23T06:03:16;97228.88;;;6.42;100.00
12146;BME280;6136;47.032;15.398;2023-03-23T06:05:50;97224.16;;;6.49;100.00
12146;BME280;6136;47.032;15.398;2023-03-23T06:08:20;97236.97;;;6.72;100.00
12146;BME280;6136;47.032;15.398;2023-03-23T06:10:50;97230.63;;;6.76;100.00
12146;BME280;6136;47.032;15.398;2023-03-23T06:13:18;97229.81;;;6.91;100.00
12146;BME280;6136;47.032;15.398;2023-03-23T06:15:49;97241.50;;;7.03;100.00
12146;BME280;6136;47.032;15.398;2023-03-23T06:18:25;97228.31;;;7.19;100.00
12146;BME280;6136;47.032;15.398;2023-03-23T06:21:10;97233.03;;;7.29;100.00
12146;BME280;6136;47.032;15.398;2023-03-23T06:24:04;97230.91;;;7.36;100.00
12146;BME280;6136;47.032;15.398;2023-03-23T06:26:36;97229.47;;;7.62;100.00
12146;BME280;6136;47.032;15.398;2023-03-23T06:29:07;97228.50;;;7.78;100.00
12146;BME280;6136;47.032;15.398;2023-03-23T06:31:45;97222.78;;;7.86;100.00
12146;BME280;6136;47.032;15.398;2023-03-23T06:34:14;97229.09;;;7.99;100.00
12146;BME280;6136;47.032;15.398;2023-03-23T06:37:18;97232.94;;;8.24;100.00
12146;BME280;6136;47.032;15.398;2023-03-23T06:39:56;97227.47;;;8.42;100.00
12146;BME280;6136;47.032;15.398;2023-03-23T06:42:32;97232.50;;;8.61;100.00
12146;BME280;6136;47.032;15.398;2023-03-23T06:45:23;97233.13;;;8.80;100.00
12146;BME280;6136;47.032;15.398;2023-03-23T06:47:58;97232.06;;;8.97;100.00
12146;BME280;6136;47.032;15.398;2023-03-23T06:50:28;97237.84;;;9.18;100.00
12146;BME280;6136;47.032;15.398;2023-03-23T06:52:55;97244.16;;;9.29;97.83
12146;BME280;6136;47.032;15.398;2023-03-23T06:55:22;97235.34;;;9.57;97.37
12146;BME280;6136;47.032;15.398;2023-03-23T06:57:51;97244.94;;;9.72;95.43
12146;BME280;6136;47.032;15.398;2023-03-23T07:00:18;97230.09;;;10.11;94.09
12146;BME280;6136;47.032;15.398;2023-03-23T07:02:46;97247.56;;;10.80;90.71
12146;BME280;6136;47.032;15.398;2023-03-23T07:05:13;97246.47;;;11.46;86.29
12146;BME280;6136;47.032;15.398;2023-03-23T07:07:41;97245.94;;;12.61;80.36
12146;BME280;6136;47.032;15.398;2023-03-23T07:10:18;97244.88;;;13.88;70.94
12146;BME280;6136;47.032;15.398;2023-03-23T07:12:45;97241.00;;;14.46;67.25
12146;BME280;6136;47.032;15.398;2023-03-23T07:15:14;97233.63;;;14.38;67.33
12146;BME280;6136;47.032;15.398;2023-03-23T07:17:47;97244.28;;;14.38;65.63
12146;BME280;6136;47.032;15.398;2023-03-23T07:20:20;97234.31;;;14.52;65.97
12146;BME280;6136;47.032;15.398;2023-03-23T07:22:47;97243.06;;;13.99;67.08
12146;BME280;6136;47.032;15.398;2023-03-23T07:25:38;97238.97;;;13.84;68.01
12146;BME280;6136;47.032;15.398;2023-03-23T07:28:07;97235.28;;;14.08;67.83
12146;BME280;6136;47.032;15.398;2023-03-23T07:30:38;97241.28;;;14.43;65.11
12146;BME280;6136;47.032;15.398;2023-03-23T07:33:06;97243.84;;;14.86;63.73
12146;BME280;6136;47.032;15.398;2023-03-23T07:35:36;97245.78;;;14.84;63.68
12146;BME280;6136;47.032;15.398;2023-03-23T07:38:07;97248.00;;;15.21;62.72
12146;BME280;6136;47.032;15.398;2023-03-23T07:40:35;97239.53;;;15.67;60.68
12146;BME280;6136;47.032;15.398;2023-03-23T07:43:07;97241.97;;;16.39;57.68
12146;BME280;6136;47.032;15.398;2023-03-23T07:45:56;97246.19;;;17.18;55.34
12146;BME280;6136;47.032;15.398;2023-03-23T07:48:27;97251.63;;;17.36;54.37
12146;BME280;6136;47.032;15.398;2023-03-23T07:50:55;97237.91;;;18.22;51.74
12146;BME280;6136;47.032;15.398;2023-03-23T07:53:22;97239.72;;;17.67;52.06
12146;BME280;6136;47.032;15.398;2023-03-23T07:56:08;97236.50;;;16.98;54.69
12146;BME280;6136;47.032;15.398;2023-03-23T07:58:35;97247.34;;;16.67;56.10
12146;BME280;6136;47.032;15.398;2023-03-23T08:01:04;97236.34;;;16.22;57.09
12146;BME280;6136;47.032;15.398;2023-03-23T08:03:33;97243.28;;;15.95;58.27
12146;BME280;6136;47.032;15.398;2023-03-23T08:06:33;97248.66;;;15.34;59.53
12146;BME280;6136;47.032;15.398;2023-03-23T08:09:15;97246.19;;;15.00;60.39
12146;BME280;6136;47.032;15.398;2023-03-23T08:12:00;97240.00;;;14.79;61.35
12146;BME280;6136;47.032;15.398;2023-03-23T08:14:46;97246.00;;;14.71;62.12
12146;BME280;6136;47.032;15.398;2023-03-23T08:17:33;97241.38;;;14.94;60.46
12146;BME280;6136;47.032;15.398;2023-03-23T08:20:36;97233.09;;;14.97;60.46
12146;BME280;6136;47.032;15.398;2023-03-23T08:23:24;97244.34;;;15.22;59.71
12146;BME280;6136;47.032;15.398;2023-03-23T08:26:17;97235.59;;;15.10;59.85
12146;BME280;6136;47.032;15.398;2023-03-23T08:28:52;97233.44;;;15.34;59.67
12146;BME280;6136;47.032;15.398;2023-03-23T08:31:19;97222.09;;;15.63;59.82
12146;BME280;6136;47.032;15.398;2023-03-23T08:34:20;97227.13;;;15.96;58.00
12146;BME280;6136;47.032;15.398;2023-03-23T08:37:02;97226.03;;;16.18;56.89
12146;BME280;6136;47.032;15.398;2023-03-23T08:40:03;97233.00;;;16.78;55.87
12146;BME280;6136;47.032;15.398;2023-03-23T08:42:55;97230.84;;;17.67;53.42
12146;BME280;6136;47.032;15.398;2023-03-23T08:45:55;97224.97;;;18.08;52.19
12146;BME280;6136;47.032;15.398;2023-03-23T08:48:41;97219.38;;;18.02;51.58
12146;BME280;6136;47.032;15.398;2023-03-23T08:51:30;97225.47;;;17.57;53.72
12146;BME280;6136;47.032;15.398;2023-03-23T08:54:20;97225.78;;;16.98;54.98
12146;BME280;6136;47.032;15.398;2023-03-23T08:57:06;97228.78;;;16.66;56.83
12146;BME280;6136;47.032;15.398;2023-03-23T08:59:48;97237.81;;;16.65;56.95
12146;BME280;6136;47.032;15.398;2023-03-23T09:02:29;97238.03;;;17.10;55.23
12146;BME280;6136;47.032;15.398;2023-03-23T09:05:27;97232.09;;;18.00;52.99
12146;BME280;6136;47.032;15.398;2023-03-23T09:08:04;97232.44;;;18.14;53.67
12146;BME280;6136;47.032;15.398;2023-03-23T09:10:31;97225.38;;;18.76;51.92
12146;BME280;6136;47.032;15.398;2023-03-23T09:12:58;97231.88;;;18.91;50.57
12146;BME280;6136;47.032;15.398;2023-03-23T09:15:25;97233.03;;;19.58;50.96
12146;BME280;6136;47.032;15.398;2023-03-23T09:17:53;97232.69;;;20.29;47.83
12146;BME280;6136;47.032;15.398;2023-03-23T09:20:24;97222.56;;;20.23;46.52
12146;BME280;6136;47.032;15.398;2023-03-23T09:22:53;97232.34;;;20.32;46.61
12146;BME280;6136;47.032;15.398;2023-03-23T09:25:26;97228.72;;;19.65;48.01
12146;BME280;6136;47.032;15.398;2023-03-23T09:27:56;97229.22;;;19.43;50.66
12146;BME280;6136;47.032;15.398;2023-03-23T09:30:25;97221.53;;;19.74;48.90
12146;BME280;6136;47.032;15.398;2023-03-23T09:32:53;97228.16;;;19.36;49.83
12146;BME280;6136;47.032;15.398;2023-03-23T09:35:21;97231.22;;;19.15;50.22
12146;BME280;6136;47.032;15.398;2023-03-23T09:37:49;97230.25;;;18.98;50.61
12146;BME280;6136;47.032;15.398;2023-03-23T09:40:18;97225.06;;;18.79;50.69
12146;BME280;6136;47.032;15.398;2023-03-23T09:45:43;97216.59;;;18.39;51.48
12146;BME280;6136;47.032;15.398;2023-03-23T09:51:15;97196.44;;;20.66;46.98
12146;BME280;6136;47.032;15.398;2023-03-23T09:53:48;97197.16;;;22.19;42.35
12146;BME280;6136;47.032;15.398;2023-03-23T09:56:17;97196.72;;;24.17;39.12
12146;BME280;6136;47.032;15.398;2023-03-23T09:58:50;97195.66;;;22.70;40.57
12146;BME280;6136;47.032;15.398;2023-03-23T10:01:21;97193.66;;;22.41;40.75
12146;BME280;6136;47.032;15.398;2023-03-23T10:04:00;97199.03;;;22.95;39.53
12146;BME280;6136;47.032;15.398;2023-03-23T10:06:29;97197.69;;;23.95;38.61
12146;BME280;6136;47.032;15.398;2023-03-23T10:08:57;97199.00;;;22.49;41.33
12146;BME280;6136;47.032;15.398;2023-03-23T10:11:33;97200.97;;;21.93;41.34
12146;BME280;6136;47.032;15.398;2023-03-23T10:14:15;97189.25;;;21.70;41.57
12146;BME280;6136;47.032;15.398;2023-03-23T10:16:53;97179.28;;;20.67;44.33
12146;BME280;6136;47.032;15.398;2023-03-23T10:19:29;97175.38;;;20.53;44.46
12146;BME280;6136;47.032;15.398;2023-03-23T10:22:03;97172.31;;;22.23;41.87
12146;BME280;6136;47.032;15.398;2023-03-23T10:24:34;97168.28;;;25.56;35.95
12146;BME280;6136;47.032;15.398;2023-03-23T10:27:11;97158.41;;;26.23;35.71
12146;BME280;6136;47.032;15.398;2023-03-23T10:29:46;97157.22;;;28.17;31.05
12146;BME280;6136;47.032;15.398;2023-03-23T10:32:18;97156.06;;;28.82;30.07
12146;BME280;6136;47.032;15.398;2023-03-23T10:34:49;97159.69;;;28.25;30.62
12146;BME280;6136;47.032;15.398;2023-03-23T10:37:19;97156.75;;;29.03;29.33
12146;BME280;6136;47.032;15.398;2023-03-23T10:39:51;97158.66;;;29.27;29.50
12146;BME280;6136;47.032;15.398;2023-03-23T10:42:28;97152.50;;;29.31;29.20
12146;BME280;6136;47.032;15.398;2023-03-23T10:44:59;97146.38;;;28.86;29.82
12146;BME280;6136;47.032;15.398;2023-03-23T10:47:27;97142.66;;;29.73;27.96
12146;BME280;6136;47.032;15.398;2023-03-23T10:49:56;97143.25;;;30.67;27.31
12146;BME280;6136;47.032;15.398;2023-03-23T10:52:29;97133.44;;;31.01;27.34
12146;BME280;6136;47.032;15.398;2023-03-23T10:55:03;97136.53;;;30.93;27.13
12146;BME280;6136;47.032;15.398;2023-03-23T10:57:32;97136.25;;;31.36;26.98
12146;BME280;6136;47.032;15.398;2023-03-23T11:00:05;97135.63;;;30.69;27.11
12146;BME280;6136;47.032;15.398;2023-03-23T11:02:39;97139.16;;;30.99;25.75
12146;BME280;6136;47.032;15.398;2023-03-23T11:05:16;97150.22;;;31.34;25.66
12146;BME280;6136;47.032;15.398;2023-03-23T11:07:56;97137.53;;;30.20;27.53
12146;BME280;6136;47.032;15.398;2023-03-23T11:10:27;97134.91;;;28.71;28.37
12146;BME280;6136;47.032;15.398;2023-03-23T11:12:57;97134.34;;;27.47;29.91
12146;BME280;6136;47.032;15.398;2023-03-23T11:15:29;97140.19;;;27.51;30.45
12146;BME280;6136;47.032;15.398;2023-03-23T11:17:59;97133.03;;;28.34;28.47
12146;BME280;6136;47.032;15.398;2023-03-23T11:20:27;97143.50;;;28.37;28.87
12146;BME280;6136;47.032;15.398;2023-03-23T11:22:56;97140.66;;;28.56;28.60
12146;BME280;6136;47.032;15.398;2023-03-23T11:25:23;97156.94;;;27.34;29.60
12146;BME280;6136;47.032;15.398;2023-03-23T11:27:52;97143.94;;;26.84;29.85
12146;BME280;6136;47.032;15.398;2023-03-23T11:30:22;97139.56;;;25.68;31.38
12146;BME280;6136;47.032;15.398;2023-03-23T11:32:52;97149.78;;;24.25;34.08
12146;BME280;6136;47.032;15.398;2023-03-23T11:35:26;97142.25;;;23.32;36.26
12146;BME280;6136;47.032;15.398;2023-03-23T11:37:54;97145.78;;;22.58;37.99
12146;BME280;6136;47.032;15.398;2023-03-23T11:40:24;97135.03;;;22.50;37.30
12146;BME280;6136;47.032;15.398;2023-03-23T11:42:58;97147.94;;;22.62;36.75
12146;BME280;6136;47.032;15.398;2023-03-23T11:45:33;97145.22;;;22.17;37.27
12146;BME280;6136;47.032;15.398;2023-03-23T11:48:14;97134.81;;;22.36;37.84
12146;BME280;6136;47.032;15.398;2023-03-23T11:50:51;97122.38;;;24.77;35.33
12146;BME280;6136;47.032;15.398;2023-03-23T11:53:26;97114.47;;;27.33;30.07
12146;BME280;6136;47.032;15.398;2023-03-23T11:56:06;97112.16;;;27.30;31.22
12146;BME280;6136;47.032;15.398;2023-03-23T11:58:36;97116.03;;;29.51;27.13
12146;BME280;6136;47.032;15.398;2023-03-23T12:01:06;97121.91;;;30.39;25.45
12146;BME280;6136;47.032;15.398;2023-03-23T12:03:53;97127.78;;;31.14;24.31
12146;BME280;6136;47.032;15.398;2023-03-23T12:06:30;97123.72;;;30.15;26.24
12146;BME280;6136;47.032;15.398;2023-03-23T12:09:18;97118.06;;;29.37;26.47
12146;BME280;6136;47.032;15.398;2023-03-23T12:11:56;97122.59;;;28.62;27.63
12146;BME280;6136;47.032;15.398;2023-03-23T12:14:32;97108.88;;;29.50;26.34
12146;BME280;6136;47.032;15.398;2023-03-23T12:17:12;97107.09;;;29.19;26.90
12146;BME280;6136;47.032;15.398;2023-03-23T12:19:56;97093.94;;;28.53;27.57
12146;BME280;6136;47.032;15.398;2023-03-23T12:22:41;97105.63;;;27.51;29.55
12146;BME280;6136;47.032;15.398;2023-03-23T12:25:23;97097.03;;;28.56;27.21
12146;BME280;6136;47.032;15.398;2023-03-23T12:27:57;97091.25;;;27.95;28.11
12146;BME280;6136;47.032;15.398;2023-03-23T12:30:33;97084.81;;;27.90;28.51
12146;BME280;6136;47.032;15.398;2023-03-23T12:33:17;97081.13;;;28.22;27.34
12146;BME280;6136;47.032;15.398;2023-03-23T12:35:57;97082.59;;;28.18;27.38
12146;BME280;6136;47.032;15.398;2023-03-23T12:39:01;97077.16;;;28.11;27.20
12146;BME280;6136;47.032;15.398;2023-03-23T12:41:35;97072.69;;;27.79;28.04
12146;BME280;6136;47.032;15.398;2023-03-23T12:44:06;97083.00;;;28.84;27.51
12146;BME280;6136;47.032;15.398;2023-03-23T12:46:58;97069.66;;;29.81;26.46
12146;BME280;6136;47.032;15.398;2023-03-23T12:49:30;97073.81;;;30.91;24.58
12146;BME280;6136;47.032;15.398;2023-03-23T12:52:04;97064.72;;;31.09;24.70
12146;BME280;6136;47.032;15.398;2023-03-23T12:54:35;97056.34;;;31.50;23.63
12146;BME280;6136;47.032;15.398;2023-03-23T12:57:10;97055.00;;;30.41;25.69
12146;BME280;6136;47.032;15.398;2023-03-23T12:59:44;97055.81;;;30.30;25.27
12146;BME280;6136;47.032;15.398;2023-03-23T13:02:19;97048.53;;;30.24;26.34
12146;BME280;6136;47.032;15.398;2023-03-23T13:04:57;97037.06;;;29.67;27.49
12146;BME280;6136;47.032;15.398;2023-03-23T13:07:32;97025.16;;;30.81;24.42
12146;BME280;6136;47.032;15.398;2023-03-23T13:10:04;97021.91;;;29.53;26.93
12146;BME280;6136;47.032;15.398;2023-03-23T13:12:35;97026.16;;;28.56;27.84
12146;BME280;6136;47.032;15.398;2023-03-23T13:15:15;97030.19;;;28.23;27.55
12146;BME280;6136;47.032;15.398;2023-03-23T13:17:50;97020.53;;;27.18;28.78
12146;BME280;6136;47.032;15.398;2023-03-23T13:20:35;97018.81;;;26.05;31.10
12146;BME280;6136;47.032;15.398;2023-03-23T13:23:12;97020.97;;;26.42;30.13
12146;BME280;6136;47.032;15.398;2023-03-23T13:25:49;97027.78;;;25.99;30.99
12146;BME280;6136;47.032;15.398;2023-03-23T13:28:18;97022.16;;;26.07;30.43
12146;BME280;6136;47.032;15.398;2023-03-23T13:30:57;97003.19;;;26.86;29.12
12146;BME280;6136;47.032;15.398;2023-03-23T13:33:29;97000.00;;;28.17;28.65
12146;BME280;6136;47.032;15.398;2023-03-23T13:35:56;97004.41;;;29.00;26.55
12146;BME280;6136;47.032;15.398;2023-03-23T13:38:33;97003.13;;;29.02;26.97
12146;BME280;6136;47.032;15.398;2023-03-23T13:41:07;97003.63;;;28.92;26.97
12146;BME280;6136;47.032;15.398;2023-03-23T13:43:37;96997.88;;;28.82;26.98
12146;BME280;6136;47.032;15.398;2023-03-23T13:46:10;97010.97;;;28.67;26.88